Time;durP1;ratioP1;P1;durP2;ratioP2;P2;SDS_P1;SDS_P2;PMS_P1;PMS_P2;Temp;Humidity;BMP_temperature;BMP_pressure;BME280_temperature;BME280_humidity;BME280_pressure;Samples;Min_cycle;Max_cycle;Signal;HPM_P1;HPM_P2
2024/02/16 00:00:31;;;;;;;8.73;5.03;;;;;;;-5.37;100.00;101087.25;4997080;28;20427;-67
2024/02/16 00:02:59;;;;;;;10.30;5.50;;;;;;;-5.39;100.00;101081.25;4996725;28;20092;-67
2024/02/16 00:05:24;;;;;;;8.30;5.20;;;;;;;-5.39;100.00;101073.47;4964683;28;20045;-67
2024/02/16 00:07:53;;;;;;;9.37;5.30;;;;;;;-5.42;100.00;101087.34;4980826;28;20060;-67
2024/02/16 00:10:20;;;;;;;9.77;5.13;;;;;;;-5.41;100.00;101083.84;4980578;28;20056;-67
2024/02/16 00:12:45;;;;;;;8.70;5.17;;;;;;;-5.43;100.00;101087.38;4977006;28;20041;-67
2024/02/16 00:15:12;;;;;;;11.13;5.67;;;;;;;-5.41;100.00;101088.16;4993605;28;20058;-67
2024/02/16 00:17:38;;;;;;;11.10;5.97;;;;;;;-5.43;100.00;101085.59;4994183;28;20054;-66
2024/02/16 00:20:07;;;;;;;13.03;5.50;;;;;;;-5.44;100.00;101091.66;4993540;28;20459;-68
2024/02/16 00:22:34;;;;;;;10.80;5.80;;;;;;;-5.44;100.00;101085.63;4993706;28;20054;-66
2024/02/16 00:25:00;;;;;;;14.30;6.43;;;;;;;-5.47;100.00;101081.38;4993635;28;20637;-66
2024/02/16 00:27:26;;;;;;;9.20;5.17;;;;;;;-5.48;100.00;101083.97;4977681;28;20054;-66
2024/02/16 00:29:52;;;;;;;11.73;5.80;;;;;;;-5.47;100.00;101077.91;4980611;28;20058;-66
2024/02/16 00:32:19;;;;;;;11.10;5.00;;;;;;;-5.43;100.00;101067.47;4977296;28;20473;-66
2024/02/16 00:34:46;;;;;;;8.20;4.90;;;;;;;-5.43;100.00;101066.66;4977132;28;20042;-67
2024/02/16 00:37:13;;;;;;;10.83;5.50;;;;;;;-5.43;100.00;101066.66;4993508;28;20053;-67
2024/02/16 00:39:42;;;;;;;9.27;5.23;;;;;;;-5.44;100.00;101062.34;4977337;28;20479;-68
2024/02/16 00:42:08;;;;;;;9.43;5.07;;;;;;;-5.46;100.00;101062.34;4993588;28;20057;-67
2024/02/16 00:44:34;;;;;;;10.63;5.53;;;;;;;-5.50;100.00;101055.53;5011598;28;20136;-67
2024/02/16 00:47:01;;;;;;;9.70;4.80;;;;;;;-5.48;100.00;101064.13;5049999;28;20087;-68
2024/02/16 00:49:27;;;;;;;9.40;5.10;;;;;;;-5.50;100.00;101054.66;5016046;28;20049;-67
2024/02/16 00:51:54;;;;;;;10.10;5.63;;;;;;;-5.49;100.00;101051.22;5029138;28;20152;-66
2024/02/16 00:54:22;;;;;;;11.13;5.80;;;;;;;-5.54;100.00;101048.72;5000039;28;20159;-66
2024/02/16 00:56:48;;;;;;;9.70;5.20;;;;;;;-5.60;100.00;101030.69;5000257;28;20138;-67
2024/02/16 00:59:14;;;;;;;8.63;5.17;;;;;;;-5.49;100.00;101039.13;5000178;28;20048;-66
2024/02/16 01:01:39;;;;;;;8.73;5.20;;;;;;;-5.46;100.00;101036.47;5000424;28;20495;-67
2024/02/16 01:04:06;;;;;;;7.67;4.17;;;;;;;-5.46;100.00;101027.88;5016109;28;20049;-69
2024/02/16 01:06:33;;;;;;;6.87;4.30;;;;;;;-5.40;100.00;101049.31;5031535;28;20049;-67
2024/02/16 01:08:58;;;;;;;7.43;4.00;;;;;;;-5.41;100.00;101031.22;5014439;28;20511;-68
2024/02/16 01:11:24;;;;;;;8.47;4.60;;;;;;;-5.38;100.00;101033.75;5013842;28;20135;-67
2024/02/16 01:13:50;;;;;;;8.77;5.23;;;;;;;-5.41;100.00;101046.75;5013621;28;20621;-66
2024/02/16 01:16:19;;;;;;;7.30;4.63;;;;;;;-5.40;100.00;101036.38;5030298;28;20048;-66
2024/02/16 01:18:45;;;;;;;10.00;5.27;;;;;;;-5.34;100.00;101046.66;4985202;28;20049;-66
2024/02/16 01:21:11;;;;;;;9.90;5.13;;;;;;;-5.40;100.00;101044.13;5014352;28;20143;-66
2024/02/16 01:23:37;;;;;;;6.37;3.83;;;;;;;-5.38;100.00;101039.81;5014838;28;20084;-66
2024/02/16 01:26:03;;;;;;;9.07;4.97;;;;;;;-5.34;100.00;101045.78;5032708;28;20060;-66
2024/02/16 01:28:29;;;;;;;6.87;4.20;;;;;;;-5.32;100.00;101036.28;5016121;28;20069;-66
2024/02/16 01:30:58;;;;;;;7.53;4.47;;;;;;;-5.31;100.00;101049.19;5016026;28;20147;-66
2024/02/16 01:33:24;;;;;;;7.23;4.30;;;;;;;-5.30;100.00;101045.72;5015949;28;20037;-66
2024/02/16 01:35:50;;;;;;;8.23;4.40;;;;;;;-5.32;100.00;101038.88;5023415;28;20080;-66
2024/02/16 01:38:15;;;;;;;8.87;5.17;;;;;;;-5.40;100.00;101041.56;5034338;28;20076;-67
2024/02/16 01:40:42;;;;;;;6.57;4.30;;;;;;;-5.28;100.00;101050.88;5017125;28;20056;-66
2024/02/16 01:43:07;;;;;;;7.87;4.37;;;;;;;-5.31;100.00;101040.56;5049935;28;20041;-67
2024/02/16 01:45:33;;;;;;;9.00;4.90;;;;;;;-5.27;100.00;101049.97;5016691;28;20344;-67
2024/02/16 01:47:59;;;;;;;9.60;4.93;;;;;;;-5.29;100.00;101044.81;5050177;28;20069;-66
2024/02/16 01:50:25;;;;;;;7.00;4.20;;;;;;;-5.23;100.00;101049.06;5017214;28;20462;-67
2024/02/16 01:52:50;;;;;;;7.87;4.40;;;;;;;-5.22;100.00;101053.34;5016786;28;20049;-66
2024/02/16 01:55:17;;;;;;;8.70;4.87;;;;;;;-5.21;100.00;101052.47;5049833;28;20141;-67
2024/02/16 01:57:44;;;;;;;7.43;4.40;;;;;;;-5.21;100.00;101039.50;5017192;28;20056;-67
2024/02/16 02:00:14;;;;;;;8.23;4.33;;;;;;;-5.13;100.00;101042.84;5017229;28;20115;-67
2024/02/16 02:02:40;;;;;;;8.20;4.57;;;;;;;-5.18;100.00;101044.63;5049457;28;20050;-66
2024/02/16 02:05:07;;;;;;;8.30;4.83;;;;;;;-5.14;100.00;101048.03;5015306;28;20156;-67
2024/02/16 02:07:36;;;;;;;9.77;4.85;;;;;;;-5.20;100.00;101049.84;5047821;28;20057;-68
2024/02/16 02:10:03;;;;;;;8.00;4.90;;;;;;;-5.30;100.00;101057.78;4998983;28;20057;-67
2024/02/16 02:12:28;;;;;;;9.17;4.47;;;;;;;-5.36;100.00;101042.38;4999141;28;20095;-67
2024/02/16 02:14:54;;;;;;;10.57;4.83;;;;;;;-5.39;100.00;101039.81;5016830;28;20085;-66
2024/02/16 02:17:20;;;;;;;10.70;5.20;;;;;;;-5.38;100.00;101041.53;4999910;28;20052;-66
2024/02/16 02:19:47;;;;;;;9.63;5.30;;;;;;;-5.36;100.00;101053.59;5032349;28;20391;-69
2024/02/16 02:22:17;;;;;;;9.43;4.97;;;;;;;-5.31;100.00;101044.03;4999835;28;20045;-67
2024/02/16 02:24:44;;;;;;;7.67;4.90;;;;;;;-5.43;100.00;101040.78;5031838;28;20111;-66
2024/02/16 02:27:12;;;;;;;10.60;5.00;;;;;;;-5.39;100.00;101048.47;5031968;28;20045;-66
2024/02/16 02:29:40;;;;;;;9.32;5.28;;;;;;;-5.45;100.00;101042.53;4999015;28;20056;-66
2024/02/16 02:32:08;;;;;;;8.53;4.60;;;;;;;-5.44;100.00;101037.31;4998956;28;20055;-67
2024/02/16 02:34:36;;;;;;;8.33;4.83;;;;;;;-5.52;100.00;101038.31;5015250;28;20041;-68
2024/02/16 02:37:03;;;;;;;9.53;5.40;;;;;;;-5.48;100.00;101050.34;4999136;28;20048;-66
2024/02/16 02:39:30;;;;;;;9.17;5.50;;;;;;;-5.46;100.00;101044.25;5014116;28;20068;-67
2024/02/16 02:41:57;;;;;;;9.00;4.47;;;;;;;-5.46;100.00;101036.47;5014473;28;20136;-66
2024/02/16 02:44:26;;;;;;;8.97;5.07;;;;;;;-5.40;100.00;101030.38;5033823;28;20495;-67
2024/02/16 02:46:52;;;;;;;8.73;5.30;;;;;;;-5.49;100.00;101033.94;5021477;28;20080;-67
2024/02/16 02:49:23;;;;;;;10.37;5.47;;;;;;;-5.41;100.00;101039.00;5000111;28;20102;-71
2024/02/16 02:51:48;;;;;;;;;;;;;;;-5.38;100.00;101051.88;5034294;28;20078;-66
2024/02/16 02:54:14;;;;;;;9.80;5.40;;;;;;;-5.61;100.00;101039.31;5017913;28;19923;-66
2024/02/16 02:56:40;;;;;;;9.87;5.73;;;;;;;-5.57;100.00;101047.88;5033693;28;20221;-66
2024/02/16 02:59:07;;;;;;;11.77;5.60;;;;;;;-5.59;100.00;101040.16;5014491;28;20053;-66
2024/02/16 03:01:39;;;;;;;8.70;5.30;;;;;;;-5.53;100.00;101039.19;5005586;28;20056;-67
2024/02/16 03:04:05;;;;;;;10.63;5.67;;;;;;;-5.60;100.00;101045.34;5013846;28;20053;-66
2024/02/16 03:06:31;;;;;;;10.20;5.50;;;;;;;-5.61;100.00;101034.13;5014233;28;20037;-66
2024/02/16 03:09:00;;;;;;;12.60;5.67;;;;;;;-5.54;100.00;101045.25;4997646;28;20053;-68
2024/02/16 03:11:26;;;;;;;12.20;5.97;;;;;;;-5.58;100.00;101051.38;5013146;28;20053;-67
2024/02/16 03:13:55;;;;;;;10.33;5.80;;;;;;;-5.52;100.00;101046.09;4996969;28;20056;-67
2024/02/16 03:16:21;;;;;;;10.87;6.10;;;;;;;-5.48;100.00;101045.16;5032554;28;20150;-68
2024/02/16 03:18:47;;;;;;;11.13;5.60;;;;;;;-5.48;100.00;101055.50;5049766;28;20391;-67
2024/02/16 03:21:16;;;;;;;10.13;5.40;;;;;;;-5.43;100.00;101054.53;5000157;28;20454;-69
2024/02/16 03:23:45;;;;;;;9.43;5.27;;;;;;;-5.39;100.00;101053.63;5032566;28;20446;-67
2024/02/16 03:26:15;;;;;;;12.03;5.83;;;;;;;-5.39;100.00;101045.88;5033412;28;20045;-67
2024/02/16 03:28:40;;;;;;;9.40;5.20;;;;;;;-5.42;100.00;101050.22;5032702;28;20774;-67
2024/02/16 03:31:07;;;;;;;10.13;5.00;;;;;;;-5.43;100.00;101043.34;5034693;28;20086;-67
2024/02/16 03:33:34;;;;;;;9.63;5.57;;;;;;;-5.40;100.00;101051.06;5053043;28;20063;-67
2024/02/16 03:36:00;;;;;;;9.37;5.40;;;;;;;-5.41;100.00;101051.94;5035988;28;20049;-68
2024/02/16 03:38:27;;;;;;;10.07;4.93;;;;;;;-5.36;100.00;101056.16;5012564;28;20479;-67
2024/02/16 03:40:56;;;;;;;8.07;4.80;;;;;;;-5.28;100.00;101061.22;5012989;28;20061;-67
2024/02/16 03:43:22;;;;;;;9.27;4.80;;;;;;;-5.34;100.00;101051.84;5013224;28;20349;-67
2024/02/16 03:45:48;;;;;;;10.40;5.60;;;;;;;-5.37;100.00;101045.84;5029305;28;20045;-67
2024/02/16 03:48:15;;;;;;;9.33;5.23;;;;;;;-5.31;100.00;101053.50;4980687;28;20056;-68
2024/02/16 03:50:41;;;;;;;9.03;4.87;;;;;;;-5.30;100.00;101052.63;4996287;28;20041;-67
2024/02/16 03:53:08;;;;;;;8.97;5.13;;;;;;;-5.30;100.00;101065.56;5002065;28;20138;-67
2024/02/16 03:55:36;;;;;;;8.47;5.23;;;;;;;-5.28;100.00;101069.00;4973516;28;20110;-67
2024/02/16 03:58:02;;;;;;;8.53;4.80;;;;;;;-5.25;100.00;101074.13;4973357;28;20046;-67
2024/02/16 04:00:28;;;;;;;9.27;5.10;;;;;;;-5.27;100.00;101071.56;4954512;28;20047;-67
2024/02/16 04:02:54;;;;;;;8.90;4.70;;;;;;;-5.24;100.00;101068.91;4962450;28;20828;-67
2024/02/16 04:05:22;;;;;;;9.00;4.43;;;;;;;-5.21;100.00;101078.34;4954295;28;20132;-67
2024/02/16 04:07:47;;;;;;;8.60;4.40;;;;;;;-5.20;100.00;101060.19;4922777;28;20051;-66
2024/02/16 04:10:13;;;;;;;9.23;4.93;;;;;;;-5.16;100.00;101058.41;4977794;28;20050;-68
2024/02/16 04:12:39;;;;;;;11.53;4.97;;;;;;;-5.20;100.00;101060.19;4973137;28;20042;-66
2024/02/16 04:15:06;;;;;;;11.17;5.63;;;;;;;-5.12;100.00;101067.88;4956844;28;20128;-67
2024/02/16 04:17:33;;;;;;;9.37;4.90;;;;;;;-5.15;100.00;101060.13;4972321;28;20050;-67
2024/02/16 04:19:58;;;;;;;7.10;4.17;;;;;;;-5.15;100.00;101054.94;4956633;28;20057;-66
2024/02/16 04:22:24;;;;;;;8.07;4.73;;;;;;;-5.10;100.00;101047.97;4972338;28;20191;-74
2024/02/16 04:24:50;;;;;;;7.03;4.50;;;;;;;-5.07;100.00;101040.13;4972591;28;20058;-69
2024/02/16 04:27:16;;;;;;;9.33;4.97;;;;;;;-5.07;100.00;101045.31;4972220;28;20136;-75
2024/02/16 04:29:43;;;;;;;7.70;4.87;;;;;;;-5.00;100.00;101053.84;4997881;28;20067;-69
2024/02/16 04:32:09;;;;;;;7.83;4.53;;;;;;;-5.02;100.00;101055.59;4994411;28;20044;-77
2024/02/16 04:34:34;;;;;;;10.00;5.77;;;;;;;-5.05;100.00;101056.50;5049307;28;20529;-72
2024/02/16 04:37:00;;;;;;;10.70;5.50;;;;;;;-5.06;100.00;101052.22;4986959;28;20045;-73
2024/02/16 04:39:25;;;;;;;11.13;5.30;;;;;;;-5.04;100.00;101044.44;5041889;28;20110;-75
2024/02/16 04:41:53;;;;;;;9.13;5.23;;;;;;;-5.06;100.00;101039.28;5024821;28;20232;-74
2024/02/16 04:44:26;;;;;;;9.60;5.53;;;;;;;-5.04;100.00;101050.44;5040428;28;20102;-73
2024/02/16 04:46:52;;;;;;;10.40;5.53;;;;;;;-5.04;100.00;101036.66;5039596;28;20053;-68
2024/02/16 04:49:18;;;;;;;8.97;5.13;;;;;;;-5.04;100.00;101047.84;5038518;28;20093;-75
2024/02/16 04:51:44;;;;;;;9.63;5.37;;;;;;;-5.02;100.00;101047.81;5039474;28;20056;-73
2024/02/16 04:54:11;;;;;;;10.80;5.47;;;;;;;-5.01;100.00;101055.56;5024701;28;20092;-73
2024/02/16 04:56:37;;;;;;;12.47;6.23;;;;;;;-5.10;100.00;101049.72;5023842;28;20064;-69
2024/02/16 04:59:02;;;;;;;10.53;5.50;;;;;;;-5.07;100.00;101045.31;5035995;28;20483;-75
2024/02/16 05:01:29;;;;;;;9.90;5.43;;;;;;;-5.06;100.00;101041.00;5026137;28;20182;-74
2024/02/16 05:03:55;;;;;;;9.27;5.00;;;;;;;-5.03;100.00;101069.44;5040671;28;20041;-73
2024/02/16 05:06:20;;;;;;;10.33;5.30;;;;;;;-5.04;100.00;101059.97;5033794;28;20052;-75
2024/02/16 05:08:46;;;;;;;12.27;5.63;;;;;;;-5.07;100.00;101055.66;5028161;28;20052;-77
2024/02/16 05:11:11;;;;;;;9.10;5.77;;;;;;;-5.09;100.00;101060.03;5027453;28;20084;-71
2024/02/16 05:13:37;;;;;;;11.27;5.67;;;;;;;-5.08;100.00;101053.97;5027243;28;20048;-74
2024/02/16 05:16:08;;;;;;;12.77;5.80;;;;;;;-5.05;100.00;101056.50;5026810;28;20046;-74
2024/02/16 05:18:33;;;;;;;;;;;;;;;-4.94;100.00;101046.81;5028086;28;20056;-73
2024/02/16 05:20:59;;;;;;;12.33;5.70;;;;;;;-5.09;100.00;101048.81;5027445;28;19917;-73
2024/02/16 05:23:24;;;;;;;11.80;5.97;;;;;;;-5.14;100.00;101051.50;5027781;28;20037;-72
2024/02/16 05:25:50;;;;;;;10.37;5.80;;;;;;;-5.15;100.00;101059.28;5044554;28;20117;-74
2024/02/16 05:28:16;;;;;;;10.33;6.07;;;;;;;-5.16;100.00;101055.84;5053437;28;20041;-74
2024/02/16 05:30:42;;;;;;;9.70;5.60;;;;;;;-5.19;100.00;101050.72;5032834;28;20138;-73
2024/02/16 05:33:08;;;;;;;11.97;5.63;;;;;;;-5.18;100.00;101050.69;5016477;28;20145;-75
2024/02/16 05:35:33;;;;;;;11.73;6.20;;;;;;;-5.22;100.00;101022.28;5049567;28;20045;-70
2024/02/16 05:38:06;;;;;;;10.83;5.37;;;;;;;-5.17;100.00;101033.41;5032515;28;20037;-73
2024/02/16 05:40:43;;;;;;;11.00;5.53;;;;;;;-5.16;100.00;101055.84;5053033;28;20045;-74
2024/02/16 05:43:09;;;;;;;9.93;5.97;;;;;;;-5.18;100.00;101041.22;5037333;28;20045;-74
2024/02/16 05:45:35;;;;;;;9.63;5.63;;;;;;;-5.14;100.00;101051.50;5055523;28;20037;-75
2024/02/16 05:48:01;;;;;;;9.53;5.10;;;;;;;-5.12;100.00;101046.28;5055374;28;20533;-75
2024/02/16 05:50:26;;;;;;;9.37;5.17;;;;;;;-5.06;100.00;101049.63;5055435;28;20071;-73
2024/02/16 05:52:52;;;;;;;10.23;5.93;;;;;;;-5.04;100.00;101060.78;5020603;28;20395;-73
2024/02/16 05:55:21;;;;;;;10.90;5.63;;;;;;;-5.03;100.00;101064.25;5054362;28;20057;-73
2024/02/16 05:57:46;;;;;;;8.60;4.97;;;;;;;-5.00;100.00;101065.06;5029900;28;20060;-75
2024/02/16 06:00:13;;;;;;;7.13;4.00;;;;;;;-4.98;100.00;101060.69;5032656;28;20042;-74
2024/02/16 06:02:39;;;;;;;7.67;4.93;;;;;;;-4.92;100.00;101064.94;5032705;28;20041;-74
2024/02/16 06:05:04;;;;;;;8.07;4.80;;;;;;;-4.92;100.00;101064.94;5032903;28;20072;-76
2024/02/16 06:07:30;;;;;;;7.40;4.20;;;;;;;-4.86;100.00;101062.22;5035381;28;20059;-76
2024/02/16 06:09:57;;;;;;;8.27;4.60;;;;;;;-4.79;100.00;101061.22;5032956;28;20041;-74
2024/02/16 06:12:23;;;;;;;8.57;5.13;;;;;;;-4.73;100.00;101063.69;5032165;28;20060;-68
2024/02/16 06:14:49;;;;;;;9.73;4.17;;;;;;;-4.67;100.00;101066.16;5035262;28;20049;-72
2024/02/16 06:17:15;;;;;;;6.33;3.60;;;;;;;-4.61;100.00;101072.09;5046720;28;20041;-70
2024/02/16 06:19:43;;;;;;;4.53;3.17;;;;;;;-4.54;100.00;101065.94;5039367;28;20041;-75
2024/02/16 06:22:09;;;;;;;7.30;4.77;;;;;;;-4.63;100.00;101058.34;5033669;28;20033;-74
2024/02/16 06:24:36;;;;;;;10.00;5.07;;;;;;;-4.54;100.00;101072.84;5032443;28;20049;-75
2024/02/16 06:27:01;;;;;;;7.10;4.03;;;;;;;-4.50;100.00;101072.75;5048644;28;20053;-73
2024/02/16 06:29:28;;;;;;;6.57;3.57;;;;;;;-4.45;100.00;101070.94;5015768;28;20122;-75
2024/02/16 06:31:53;;;;;;;8.87;5.17;;;;;;;-4.46;100.00;101064.03;5032364;28;20060;-72
2024/02/16 06:34:19;;;;;;;6.67;4.30;;;;;;;-4.41;100.00;101066.56;5015707;28;20041;-73
2024/02/16 06:36:45;;;;;;;8.47;4.77;;;;;;;-4.36;100.00;101077.66;5032774;28;20515;-75
2024/02/16 06:39:13;;;;;;;7.17;4.50;;;;;;;-4.32;100.00;101068.97;5033354;28;20499;-75
2024/02/16 06:41:39;;;;;;;7.57;4.00;;;;;;;-4.29;100.00;101061.94;5015729;28;20098;-74
2024/02/16 06:44:06;;;;;;;10.07;5.30;;;;;;;-4.27;100.00;101073.16;5032041;28;20479;-77
2024/02/16 06:46:31;;;;;;;7.53;4.70;;;;;;;-4.25;100.00;101063.59;5032505;28;20041;-75
2024/02/16 06:48:57;;;;;;;8.37;4.60;;;;;;;-4.20;100.00;101077.34;5033346;28;20045;-76
2024/02/16 06:51:28;;;;;;;9.67;5.30;;;;;;;-4.12;100.00;101075.44;5032184;28;20684;-71
2024/02/16 06:53:54;;;;;;;;;;;;;;;-4.02;100.00;101074.38;5032508;28;20106;-75
2024/02/16 06:56:19;;;;;;;10.00;5.67;;;;;;;-4.15;100.00;101072.91;5032414;28;20007;-76
2024/02/16 06:58:46;;;;;;;10.57;5.30;;;;;;;-4.12;100.00;101075.44;5031390;28;20154;-76
2024/02/16 07:01:15;;;;;;;9.43;5.50;;;;;;;-4.02;100.00;101084.75;5031587;28;20060;-75
2024/02/16 07:03:41;;;;;;;9.17;4.90;;;;;;;-4.07;100.00;101081.38;5032627;28;20080;-75
2024/02/16 07:06:09;;;;;;;8.90;5.13;;;;;;;-4.00;100.00;101080.34;5033638;28;20053;-77
2024/02/16 07:08:41;;;;;;;10.43;5.23;;;;;;;-3.93;100.00;101068.97;5033639;28;20096;-78
2024/02/16 07:11:07;;;;;;;10.83;5.80;;;;;;;-3.92;100.00;101078.44;5033511;28;20064;-75
2024/02/16 07:13:33;;;;;;;12.53;5.77;;;;;;;-3.91;100.00;101072.41;5024653;28;20098;-77
2024/02/16 07:15:59;;;;;;;11.43;6.83;;;;;;;-3.84;100.00;101075.69;5043124;28;20132;-77
2024/02/16 07:18:25;;;;;;;12.07;6.57;;;;;;;-3.83;100.00;101075.66;5040367;28;20061;-73
2024/02/16 07:20:50;;;;;;;12.80;6.80;;;;;;;-3.84;100.00;101066.19;5037129;28;20130;-74
2024/02/16 07:23:17;;;;;;;13.27;7.13;;;;;;;-3.76;100.00;101084.16;5034288;28;20049;-72
2024/02/16 07:25:43;;;;;;;12.80;7.03;;;;;;;-3.77;100.00;101078.13;5000516;28;20057;-74
2024/02/16 07:28:09;;;;;;;9.30;4.93;;;;;;;-3.73;100.00;101074.56;5015304;28;20064;-74
2024/02/16 07:30:38;;;;;;;9.47;4.77;;;;;;;-3.66;100.00;101081.31;5031422;28;20073;-74
2024/02/16 07:33:05;;;;;;;10.63;5.30;;;;;;;-3.58;100.00;101071.63;5031941;28;20471;-75
2024/02/16 07:35:30;;;;;;;9.00;4.43;;;;;;;-3.58;100.00;101069.03;5014986;28;20103;-76
2024/02/16 07:37:56;;;;;;;7.87;4.20;;;;;;;-3.56;100.00;101067.25;4997783;28;20442;-74
2024/02/16 07:40:22;;;;;;;10.63;5.90;;;;;;;-3.47;100.00;101080.94;5031169;28;20443;-73
2024/02/16 07:42:48;;;;;;;11.10;6.13;;;;;;;-3.47;100.00;101070.53;5031818;28;20567;-75
2024/02/16 07:45:13;;;;;;;12.67;6.33;;;;;;;-3.50;100.00;101072.31;5015034;28;20041;-72
2024/02/16 07:47:42;;;;;;;7.93;4.53;;;;;;;-3.39;100.00;101066.88;4999971;28;20048;-73
2024/02/16 07:50:09;;;;;;;9.63;5.80;;;;;;;-3.42;100.00;101063.47;5031273;28;20037;-74
2024/02/16 07:52:35;;;;;;;11.97;5.90;;;;;;;-3.41;100.00;101066.03;4997704;28;20413;-74
2024/02/16 07:55:01;;;;;;;12.37;6.20;;;;;;;-3.37;100.00;101061.63;5031708;28;20121;-75
2024/02/16 07:57:27;;;;;;;12.10;6.40;;;;;;;-3.34;100.00;101066.75;5030454;28;20144;-73
2024/02/16 07:59:53;;;;;;;10.87;5.57;;;;;;;-3.34;100.00;101051.16;5030938;28;20067;-73
2024/02/16 08:02:19;;;;;;;12.40;5.93;;;;;;;-3.36;100.00;101058.13;5030184;28;20049;-74
2024/02/16 08:04:49;;;;;;;10.57;5.80;;;;;;;-3.32;100.00;101054.59;5014412;28;20055;-74
2024/02/16 08:07:16;;;;;;;13.90;6.40;;;;;;;-3.29;100.00;101067.50;5030471;28;20051;-73
2024/02/16 08:09:46;;;;;;;13.67;7.30;;;;;;;-3.20;100.00;101068.13;5031527;28;20107;-74
2024/02/16 08:12:12;;;;;;;12.98;6.50;;;;;;;-3.21;100.00;101063.81;5030163;28;20041;-74
2024/02/16 08:14:41;;;;;;;11.80;6.67;;;;;;;-3.19;100.00;101062.03;5014279;28;20045;-73
2024/02/16 08:17:07;;;;;;;13.57;7.27;;;;;;;-3.18;100.00;101068.09;5031278;28;20510;-75
2024/02/16 08:19:37;;;;;;;12.57;6.87;;;;;;;-3.18;100.00;101079.31;5013422;28;20041;-72
2024/02/16 08:22:07;;;;;;;10.57;6.13;;;;;;;-3.10;100.00;101086.94;4997139;28;20120;-74
2024/02/16 08:24:36;;;;;;;12.70;6.88;;;;;;;-3.09;100.00;101094.69;5013351;28;20064;-73
2024/02/16 08:27:04;;;;;;;17.73;6.70;;;;;;;-3.13;100.00;101100.84;5031000;28;20075;-73
2024/02/16 08:29:30;;;;;;;12.40;6.53;;;;;;;-3.15;100.00;101101.81;5016947;28;20045;-73
2024/02/16 08:31:59;;;;;;;12.70;6.80;;;;;;;-3.17;100.00;101108.78;5003100;28;20046;-74
2024/02/16 08:34:26;;;;;;;13.17;7.20;;;;;;;-3.17;100.00;101107.03;5015088;28;20041;-75
2024/02/16 08:36:51;;;;;;;12.87;7.23;;;;;;;-3.16;100.00;101092.28;5013702;28;20037;-74
2024/02/16 08:39:20;;;;;;;12.87;6.53;;;;;;;-3.15;100.00;101099.19;4998096;28;20042;-74
2024/02/16 08:41:48;;;;;;;13.73;7.13;;;;;;;-3.15;100.00;101104.41;5013145;28;20053;-75
2024/02/16 08:44:14;;;;;;;14.60;7.47;;;;;;;-3.16;100.00;101107.88;4977148;28;20065;-73
2024/02/16 08:46:40;;;;;;;13.23;6.70;;;;;;;-3.12;100.00;101123.34;4993653;28;20061;-75
2024/02/16 08:49:09;;;;;;;10.37;5.77;;;;;;;-3.08;100.00;101118.94;4976978;28;20065;-74
2024/02/16 08:51:35;;;;;;;8.50;5.20;;;;;;;-3.04;100.00;101118.81;5009270;28;20038;-76
2024/02/16 08:54:01;;;;;;;9.00;4.50;;;;;;;-2.95;100.00;101113.41;4993072;28;20112;-74
2024/02/16 08:56:28;;;;;;;9.63;4.80;;;;;;;-2.87;100.00;101113.19;4992439;28;20484;-74
2024/02/16 08:58:54;;;;;;;14.17;6.33;;;;;;;-2.85;100.00;101119.22;4976848;28;20045;-73
2024/02/16 09:01:33;;;;;;;11.17;6.60;;;;;;;-2.74;100.00;101107.69;4976348;28;20061;-74
2024/02/16 09:04:00;;;;;;;13.60;7.90;;;;;;;-2.83;100.00;101107.88;4976227;28;20579;-74
2024/02/16 09:06:26;;;;;;;14.57;7.70;;;;;;;-2.84;100.00;101110.53;4976548;28;20046;-74
2024/02/16 09:08:52;;;;;;;14.23;7.73;;;;;;;-2.84;100.00;101107.94;4992515;28;20079;-75
2024/02/16 09:11:17;;;;;;;13.90;7.40;;;;;;;-2.83;100.00;101113.09;5008794;28;20120;-74
2024/02/16 09:13:45;;;;;;;15.63;7.73;;;;;;;-2.79;100.00;101098.28;4972681;28;20061;-75
2024/02/16 09:16:11;;;;;;;13.60;8.00;;;;;;;-2.78;100.00;101100.81;4960848;28;20050;-75
2024/02/16 09:18:39;;;;;;;14.40;7.93;;;;;;;-2.79;100.00;101103.47;4976516;28;20112;-75
2024/02/16 09:21:08;;;;;;;;;;;;;;;-2.65;100.00;101097.03;4976644;28;20046;-74
2024/02/16 09:23:34;;;;;;;16.23;7.53;;;;;;;-2.76;100.00;101087.78;4992741;28;19936;-73
2024/02/16 09:26:01;;;;;;;15.13;7.53;;;;;;;-2.76;100.00;101093.00;4977434;28;20042;-76
2024/02/16 09:28:30;;;;;;;12.93;6.30;;;;;;;-2.66;100.00;101079.69;4992869;28;20484;-74
2024/02/16 09:30:59;;;;;;;12.60;6.40;;;;;;;-2.65;100.00;101091.84;4945544;28;20137;-75
2024/02/16 09:33:26;;;;;;;11.00;6.17;;;;;;;-2.57;100.00;101095.09;4992467;28;20449;-74
2024/02/16 09:35:53;;;;;;;15.57;8.40;;;;;;;-2.55;100.00;101089.84;4992996;28;20049;-71
2024/02/16 09:38:20;;;;;;;15.20;7.70;;;;;;;-2.52;100.00;101088.00;4960964;28;20117;-75
2024/02/16 09:40:46;;;;;;;14.90;7.40;;;;;;;-2.48;100.00;101096.56;4976380;28;20054;-75
2024/02/16 09:43:28;;;;;;;15.63;8.13;;;;;;;-2.34;100.00;101097.91;4993250;28;20157;-74
2024/02/16 09:45:58;;;;;;;12.80;6.87;;;;;;;-2.31;100.00;101091.78;5017114;28;20061;-74
2024/02/16 09:48:28;;;;;;;12.00;6.87;;;;;;;-2.30;100.00;101078.72;5034293;28;20046;-71
2024/02/16 09:50:56;;;;;;;14.43;7.53;;;;;;;-2.28;100.00;101097.75;5016917;28;20064;-76
2024/02/16 09:53:26;;;;;;;12.80;7.00;;;;;;;-2.21;100.00;101080.19;5035605;28;20037;-71
2024/02/16 09:55:52;;;;;;;14.57;8.10;;;;;;;-2.24;100.00;101077.69;5000520;28;20053;-76
2024/02/16 09:58:18;;;;;;;16.53;8.90;;;;;;;-2.30;100.00;101068.31;4997230;28;20058;-75
2024/02/16 10:00:55;;;;;;;16.70;8.90;;;;;;;-2.24;100.00;101056.88;4979402;28;20046;-73
2024/02/16 10:03:22;;;;;;;16.10;8.53;;;;;;;-2.29;100.00;101053.56;4979746;28;20046;-72
2024/02/16 10:05:48;;;;;;;16.13;7.80;;;;;;;-2.29;100.00;101049.19;4996382;28;20136;-73
2024/02/16 10:08:14;;;;;;;12.77;6.83;;;;;;;-2.26;100.00;101043.06;5000026;28;20141;-75
2024/02/16 10:10:42;;;;;;;14.13;7.83;;;;;;;-2.17;100.00;101041.03;4996066;28;20495;-74
2024/02/16 10:13:08;;;;;;;17.63;8.80;;;;;;;-2.20;100.00;101042.88;4977842;28;20492;-74
2024/02/16 10:15:34;;;;;;;16.23;8.17;;;;;;;-2.16;100.00;101042.75;4978515;28;20537;-71
2024/02/16 10:18:02;;;;;;;14.50;7.97;;;;;;;-2.11;100.00;101038.25;4994564;28;20037;-72
2024/02/16 10:20:27;;;;;;;16.13;8.23;;;;;;;-2.14;100.00;101027.94;5029540;28;20053;-72
2024/02/16 10:23:06;;;;;;;17.10;8.33;;;;;;;-2.01;100.00;101037.09;4997794;28;20152;-73
2024/02/16 10:25:33;;;;;;;14.57;8.40;;;;;;;-2.01;100.00;101036.22;5029541;28;20056;-73
2024/02/16 10:28:05;;;;;;;11.27;6.37;;;;;;;-1.88;100.00;101048.81;5014111;28;20140;-73
2024/02/16 10:30:38;;;;;;;13.63;7.27;;;;;;;-1.84;100.00;101023.56;5030892;28;20140;-76
2024/02/16 10:33:09;;;;;;;13.60;6.57;;;;;;;-1.74;100.00;101028.44;5048600;28;20182;-76
2024/02/16 10:35:36;;;;;;;15.43;7.73;;;;;;;-1.69;100.00;101027.47;5053743;28;20053;-75
2024/02/16 10:38:09;;;;;;;12.30;7.17;;;;;;;-1.67;100.00;101039.53;5055506;28;20041;-75
2024/02/16 10:40:39;;;;;;;13.80;7.77;;;;;;;-1.60;100.00;101028.03;5055442;28;20055;-71
2024/02/16 10:43:05;;;;;;;14.53;7.53;;;;;;;-1.67;100.00;101030.84;5053409;28;20076;-72
2024/02/16 10:45:35;;;;;;;14.93;7.70;;;;;;;-1.62;100.00;101039.38;5036744;28;20056;-71
2024/02/16 10:48:02;;;;;;;17.50;8.68;;;;;;;-1.70;100.00;101050.03;5070217;28;20482;-73
2024/02/16 10:50:32;;;;;;;15.10;8.73;;;;;;;-1.77;100.00;101045.94;5033071;28;20087;-72
2024/02/16 10:53:01;;;;;;;17.73;8.60;;;;;;;-1.80;100.00;101038.22;5031208;28;20072;-71
2024/02/16 10:55:27;;;;;;;14.13;7.40;;;;;;;-1.88;100.00;101043.63;5048320;28;20048;-73
2024/02/16 10:57:56;;;;;;;16.67;8.10;;;;;;;-1.88;100.00;101045.38;5031288;28;20132;-72
2024/02/16 11:00:22;;;;;;;15.90;8.13;;;;;;;-2.00;100.00;101044.00;5014767;28;20071;-71
2024/02/16 11:02:55;;;;;;;16.93;8.73;;;;;;;-2.04;100.00;101033.72;5032032;28;20052;-71
2024/02/16 11:05:36;;;;;;;15.63;8.03;;;;;;;-1.95;100.00;101051.66;5047393;28;20037;-69
2024/02/16 11:08:03;;;;;;;15.10;8.37;;;;;;;-2.05;100.00;101034.63;5030999;28;20064;-70
2024/02/16 11:10:28;;;;;;;17.40;8.80;;;;;;;-2.09;100.00;101038.22;5032051;28;20115;-71
2024/02/16 11:12:55;;;;;;;14.53;8.30;;;;;;;-2.13;100.00;101049.59;4997884;28;20045;-71